sensor_id;sensor_type;location;lat;lon;timestamp;P1;durP1;ratioP1;P2;durP2;ratioP2
54145;SDS011;40052;49.422;7.738;2022-09-12T00:00:50;6.10;;;4.40;;
54145;SDS011;40052;49.422;7.738;2022-09-12T00:03:15;6.65;;;4.85;;
54145;SDS011;40052;49.422;7.738;2022-09-12T00:05:42;6.25;;;4.43;;
54145;SDS011;40052;49.422;7.738;2022-09-12T00:08:13;4.93;;;4.25;;
54145;SDS011;40052;49.422;7.738;2022-09-12T00:10:41;7.30;;;4.40;;
54145;SDS011;40052;49.422;7.738;2022-09-12T00:13:08;7.32;;;4.57;;
54145;SDS011;40052;49.422;7.738;2022-09-12T00:15:38;6.57;;;4.25;;
54145;SDS011;40052;49.422;7.738;2022-09-12T00:18:05;7.47;;;4.93;;
54145;SDS011;40052;49.422;7.738;2022-09-12T00:20:32;8.75;;;4.65;;
54145;SDS011;40052;49.422;7.738;2022-09-12T00:22:58;10.10;;;4.80;;
54145;SDS011;40052;49.422;7.738;2022-09-12T00:25:23;5.75;;;4.20;;
54145;SDS011;40052;49.422;7.738;2022-09-12T00:27:49;5.80;;;4.95;;
54145;SDS011;40052;49.422;7.738;2022-09-12T00:30:14;6.95;;;4.10;;
54145;SDS011;40052;49.422;7.738;2022-09-12T00:32:39;8.68;;;4.80;;
54145;SDS011;40052;49.422;7.738;2022-09-12T00:35:07;7.68;;;5.32;;
54145;SDS011;40052;49.422;7.738;2022-09-12T00:37:35;6.38;;;4.15;;
54145;SDS011;40052;49.422;7.738;2022-09-12T00:40:05;6.05;;;4.55;;
54145;SDS011;40052;49.422;7.738;2022-09-12T00:42:31;6.13;;;5.10;;
54145;SDS011;40052;49.422;7.738;2022-09-12T00:44:59;6.72;;;4.60;;
54145;SDS011;40052;49.422;7.738;2022-09-12T00:47:26;5.18;;;4.20;;
54145;SDS011;40052;49.422;7.738;2022-09-12T00:49:57;8.65;;;4.68;;
54145;SDS011;40052;49.422;7.738;2022-09-12T00:52:33;4.80;;;3.90;;
54145;SDS011;40052;49.422;7.738;2022-09-12T00:55:09;4.85;;;4.35;;
54145;SDS011;40052;49.422;7.738;2022-09-12T00:57:41;5.53;;;4.97;;
54145;SDS011;40052;49.422;7.738;2022-09-12T01:00:15;8.05;;;5.07;;
54145;SDS011;40052;49.422;7.738;2022-09-12T01:02:44;7.32;;;4.93;;
54145;SDS011;40052;49.422;7.738;2022-09-12T01:05:14;8.60;;;4.82;;
54145;SDS011;40052;49.422;7.738;2022-09-12T01:07:44;6.95;;;4.53;;
54145;SDS011;40052;49.422;7.738;2022-09-12T01:10:12;8.15;;;5.50;;
54145;SDS011;40052;49.422;7.738;2022-09-12T01:12:41;7.07;;;4.65;;
54145;SDS011;40052;49.422;7.738;2022-09-12T01:15:11;6.70;;;4.65;;
54145;SDS011;40052;49.422;7.738;2022-09-12T01:17:45;10.13;;;4.93;;
54145;SDS011;40052;49.422;7.738;2022-09-12T01:31:36;6.07;;;4.28;;
54145;SDS011;40052;49.422;7.738;2022-09-12T01:45:07;6.45;;;4.68;;
54145;SDS011;40052;49.422;7.738;2022-09-12T01:47:48;7.03;;;4.93;;
54145;SDS011;40052;49.422;7.738;2022-09-12T01:50:19;8.52;;;4.88;;
54145;SDS011;40052;49.422;7.738;2022-09-12T01:53:02;9.10;;;4.95;;
54145;SDS011;40052;49.422;7.738;2022-09-12T01:55:35;6.20;;;4.85;;
54145;SDS011;40052;49.422;7.738;2022-09-12T01:58:07;6.57;;;5.00;;
54145;SDS011;40052;49.422;7.738;2022-09-12T02:01:14;5.97;;;4.88;;
54145;SDS011;40052;49.422;7.738;2022-09-12T02:03:42;7.13;;;5.22;;
54145;SDS011;40052;49.422;7.738;2022-09-12T02:06:19;7.15;;;4.53;;
54145;SDS011;40052;49.422;7.738;2022-09-12T02:11:17;7.47;;;4.70;;
54145;SDS011;40052;49.422;7.738;2022-09-12T02:13:55;7.70;;;5.25;;
54145;SDS011;40052;49.422;7.738;2022-09-12T02:16:30;6.07;;;4.80;;
54145;SDS011;40052;49.422;7.738;2022-09-12T02:19:02;7.85;;;4.70;;
54145;SDS011;40052;49.422;7.738;2022-09-12T02:21:35;5.50;;;4.43;;
54145;SDS011;40052;49.422;7.738;2022-09-12T02:24:03;5.35;;;4.55;;
54145;SDS011;40052;49.422;7.738;2022-09-12T02:26:43;5.90;;;4.25;;
54145;SDS011;40052;49.422;7.738;2022-09-12T02:29:14;8.98;;;5.70;;
54145;SDS011;40052;49.422;7.738;2022-09-12T02:31:46;7.18;;;4.50;;
54145;SDS011;40052;49.422;7.738;2022-09-12T02:37:17;7.03;;;5.25;;
54145;SDS011;40052;49.422;7.738;2022-09-12T02:39:45;8.80;;;5.13;;
54145;SDS011;40052;49.422;7.738;2022-09-12T02:42:11;7.45;;;5.35;;
54145;SDS011;40052;49.422;7.738;2022-09-12T02:44:37;8.70;;;5.60;;
54145;SDS011;40052;49.422;7.738;2022-09-12T02:47:10;6.15;;;4.95;;
54145;SDS011;40052;49.422;7.738;2022-09-12T02:49:39;7.40;;;4.53;;
54145;SDS011;40052;49.422;7.738;2022-09-12T02:52:05;9.00;;;5.07;;
54145;SDS011;40052;49.422;7.738;2022-09-12T02:54:30;8.48;;;4.78;;
54145;SDS011;40052;49.422;7.738;2022-09-12T02:56:56;7.65;;;5.15;;
54145;SDS011;40052;49.422;7.738;2022-09-12T02:59:24;8.05;;;5.47;;
54145;SDS011;40052;49.422;7.738;2022-09-12T03:02:05;9.32;;;4.93;;
54145;SDS011;40052;49.422;7.738;2022-09-12T03:10:29;7.72;;;5.05;;
54145;SDS011;40052;49.422;7.738;2022-09-12T03:18:07;12.27;;;4.95;;
54145;SDS011;40052;49.422;7.738;2022-09-12T03:23:17;11.05;;;5.30;;
54145;SDS011;40052;49.422;7.738;2022-09-12T03:26:00;7.10;;;5.05;;
54145;SDS011;40052;49.422;7.738;2022-09-12T03:28:34;10.00;;;4.95;;
54145;SDS011;40052;49.422;7.738;2022-09-12T03:31:10;6.80;;;4.68;;
54145;SDS011;40052;49.422;7.738;2022-09-12T03:33:39;8.55;;;5.63;;
54145;SDS011;40052;49.422;7.738;2022-09-12T03:36:04;8.73;;;5.38;;
54145;SDS011;40052;49.422;7.738;2022-09-12T03:38:30;6.85;;;5.07;;
54145;SDS011;40052;49.422;7.738;2022-09-12T03:40:55;10.77;;;5.68;;
54145;SDS011;40052;49.422;7.738;2022-09-12T03:43:23;7.88;;;5.70;;
54145;SDS011;40052;49.422;7.738;2022-09-12T03:45:51;7.97;;;5.63;;
54145;SDS011;40052;49.422;7.738;2022-09-12T03:48:19;6.35;;;4.97;;
54145;SDS011;40052;49.422;7.738;2022-09-12T03:50:45;7.22;;;5.20;;
54145;SDS011;40052;49.422;7.738;2022-09-12T03:53:13;9.65;;;5.13;;
54145;SDS011;40052;49.422;7.738;2022-09-12T03:55:38;8.30;;;5.22;;
54145;SDS011;40052;49.422;7.738;2022-09-12T03:58:03;6.60;;;5.18;;
54145;SDS011;40052;49.422;7.738;2022-09-12T04:00:31;7.25;;;5.82;;
54145;SDS011;40052;49.422;7.738;2022-09-12T04:02:59;7.95;;;5.25;;
54145;SDS011;40052;49.422;7.738;2022-09-12T04:05:25;8.65;;;5.85;;
54145;SDS011;40052;49.422;7.738;2022-09-12T04:07:50;8.75;;;5.75;;
54145;SDS011;40052;49.422;7.738;2022-09-12T04:10:18;9.07;;;5.40;;
54145;SDS011;40052;49.422;7.738;2022-09-12T04:12:46;8.55;;;5.10;;
54145;SDS011;40052;49.422;7.738;2022-09-12T04:15:12;7.97;;;5.13;;
54145;SDS011;40052;49.422;7.738;2022-09-12T04:17:37;8.23;;;4.95;;
54145;SDS011;40052;49.422;7.738;2022-09-12T04:20:05;5.65;;;4.75;;
54145;SDS011;40052;49.422;7.738;2022-09-12T04:22:31;6.50;;;4.82;;
54145;SDS011;40052;49.422;7.738;2022-09-12T04:24:57;6.10;;;4.90;;
54145;SDS011;40052;49.422;7.738;2022-09-12T04:27:22;8.38;;;5.07;;
54145;SDS011;40052;49.422;7.738;2022-09-12T04:29:52;6.82;;;5.35;;
54145;SDS011;40052;49.422;7.738;2022-09-12T04:32:19;6.95;;;4.88;;
54145;SDS011;40052;49.422;7.738;2022-09-12T04:34:47;7.65;;;5.03;;
54145;SDS011;40052;49.422;7.738;2022-09-12T04:37:12;6.72;;;4.97;;
54145;SDS011;40052;49.422;7.738;2022-09-12T04:39:40;9.20;;;5.30;;
54145;SDS011;40052;49.422;7.738;2022-09-12T04:42:06;8.88;;;4.97;;
54145;SDS011;40052;49.422;7.738;2022-09-12T04:44:34;7.45;;;5.05;;
54145;SDS011;40052;49.422;7.738;2022-09-12T04:47:00;8.88;;;5.72;;
54145;SDS011;40052;49.422;7.738;2022-09-12T04:49:25;7.90;;;5.90;;
54145;SDS011;40052;49.422;7.738;2022-09-12T04:51:55;7.75;;;5.60;;
54145;SDS011;40052;49.422;7.738;2022-09-12T04:54:20;10.82;;;5.72;;
54145;SDS011;40052;49.422;7.738;2022-09-12T04:56:47;8.88;;;5.60;;
54145;SDS011;40052;49.422;7.738;2022-09-12T04:59:19;8.25;;;5.13;;
54145;SDS011;40052;49.422;7.738;2022-09-12T05:01:45;7.93;;;5.57;;
54145;SDS011;40052;49.422;7.738;2022-09-12T05:04:11;7.13;;;5.20;;
54145;SDS011;40052;49.422;7.738;2022-09-12T05:06:40;6.38;;;4.97;;
54145;SDS011;40052;49.422;7.738;2022-09-12T05:09:06;6.75;;;4.43;;
54145;SDS011;40052;49.422;7.738;2022-09-12T05:11:36;7.90;;;5.05;;
54145;SDS011;40052;49.422;7.738;2022-09-12T05:14:03;8.52;;;4.85;;
54145;SDS011;40052;49.422;7.738;2022-09-12T05:16:32;7.03;;;4.93;;
54145;SDS011;40052;49.422;7.738;2022-09-12T05:18:58;6.32;;;4.63;;
54145;SDS011;40052;49.422;7.738;2022-09-12T05:21:26;9.30;;;5.00;;
54145;SDS011;40052;49.422;7.738;2022-09-12T05:23:57;6.43;;;5.28;;
54145;SDS011;40052;49.422;7.738;2022-09-12T05:26:30;8.50;;;5.03;;
54145;SDS011;40052;49.422;7.738;2022-09-12T05:28:55;8.50;;;5.05;;
54145;SDS011;40052;49.422;7.738;2022-09-12T05:31:24;7.15;;;5.55;;
54145;SDS011;40052;49.422;7.738;2022-09-12T05:33:54;7.78;;;5.65;;
54145;SDS011;40052;49.422;7.738;2022-09-12T05:36:28;6.57;;;5.10;;
54145;SDS011;40052;49.422;7.738;2022-09-12T05:38:57;6.43;;;5.20;;
54145;SDS011;40052;49.422;7.738;2022-09-12T05:41:24;7.28;;;4.65;;
54145;SDS011;40052;49.422;7.738;2022-09-12T05:44:04;7.40;;;4.97;;
54145;SDS011;40052;49.422;7.738;2022-09-12T05:46:35;7.18;;;4.75;;
54145;SDS011;40052;49.422;7.738;2022-09-12T05:49:06;5.25;;;4.60;;
54145;SDS011;40052;49.422;7.738;2022-09-12T05:51:34;7.25;;;5.15;;
54145;SDS011;40052;49.422;7.738;2022-09-12T05:54:02;8.20;;;5.35;;
54145;SDS011;40052;49.422;7.738;2022-09-12T05:56:30;6.38;;;4.93;;
54145;SDS011;40052;49.422;7.738;2022-09-12T06:01:25;8.50;;;5.30;;
54145;SDS011;40052;49.422;7.738;2022-09-12T06:03:52;6.22;;;4.97;;
54145;SDS011;40052;49.422;7.738;2022-09-12T06:06:19;6.93;;;5.20;;
54145;SDS011;40052;49.422;7.738;2022-09-12T06:08:49;11.30;;;7.00;;
54145;SDS011;40052;49.422;7.738;2022-09-12T06:11:18;7.22;;;5.93;;
54145;SDS011;40052;49.422;7.738;2022-09-12T06:13:47;6.63;;;5.60;;
54145;SDS011;40052;49.422;7.738;2022-09-12T06:16:17;6.95;;;5.43;;
54145;SDS011;40052;49.422;7.738;2022-09-12T06:19:18;7.32;;;5.53;;
54145;SDS011;40052;49.422;7.738;2022-09-12T06:21:42;7.90;;;5.20;;
54145;SDS011;40052;49.422;7.738;2022-09-12T06:24:08;7.45;;;5.53;;
54145;SDS011;40052;49.422;7.738;2022-09-12T06:26:34;8.30;;;5.38;;
54145;SDS011;40052;49.422;7.738;2022-09-12T06:29:04;8.30;;;6.07;;
54145;SDS011;40052;49.422;7.738;2022-09-12T06:31:31;8.60;;;5.72;;
54145;SDS011;40052;49.422;7.738;2022-09-12T06:33:59;9.95;;;5.70;;
54145;SDS011;40052;49.422;7.738;2022-09-12T06:36:29;8.30;;;6.13;;
54145;SDS011;40052;49.422;7.738;2022-09-12T06:39:06;7.97;;;5.85;;
54145;SDS011;40052;49.422;7.738;2022-09-12T06:41:34;8.00;;;6.38;;
54145;SDS011;40052;49.422;7.738;2022-09-12T06:44:00;8.45;;;6.07;;
54145;SDS011;40052;49.422;7.738;2022-09-12T06:46:29;8.98;;;6.60;;
54145;SDS011;40052;49.422;7.738;2022-09-12T06:48:55;9.68;;;6.07;;
54145;SDS011;40052;49.422;7.738;2022-09-12T06:51:21;8.70;;;6.50;;
54145;SDS011;40052;49.422;7.738;2022-09-12T06:53:47;11.63;;;6.68;;
54145;SDS011;40052;49.422;7.738;2022-09-12T06:56:14;9.10;;;7.05;;
54145;SDS011;40052;49.422;7.738;2022-09-12T06:58:43;9.82;;;7.07;;
54145;SDS011;40052;49.422;7.738;2022-09-12T07:01:18;10.82;;;7.53;;
54145;SDS011;40052;49.422;7.738;2022-09-12T07:03:49;12.07;;;7.20;;
54145;SDS011;40052;49.422;7.738;2022-09-12T07:06:19;11.40;;;7.28;;
54145;SDS011;40052;49.422;7.738;2022-09-12T07:08:45;11.80;;;7.85;;
54145;SDS011;40052;49.422;7.738;2022-09-12T07:13:44;9.18;;;6.90;;
54145;SDS011;40052;49.422;7.738;2022-09-12T07:16:11;12.18;;;7.05;;
54145;SDS011;40052;49.422;7.738;2022-09-12T07:18:38;10.10;;;7.05;;
54145;SDS011;40052;49.422;7.738;2022-09-12T07:21:08;10.10;;;7.15;;
54145;SDS011;40052;49.422;7.738;2022-09-12T07:23:37;11.30;;;6.97;;
54145;SDS011;40052;49.422;7.738;2022-09-12T07:26:04;9.57;;;6.78;;
54145;SDS011;40052;49.422;7.738;2022-09-12T07:28:30;11.00;;;6.20;;
54145;SDS011;40052;49.422;7.738;2022-09-12T07:30:57;11.15;;;7.28;;
54145;SDS011;40052;49.422;7.738;2022-09-12T07:33:24;10.80;;;7.38;;
54145;SDS011;40052;49.422;7.738;2022-09-12T07:35:51;8.40;;;6.50;;
54145;SDS011;40052;49.422;7.738;2022-09-12T07:38:24;7.95;;;6.53;;
54145;SDS011;40052;49.422;7.738;2022-09-12T07:40:49;11.75;;;7.65;;
54145;SDS011;40052;49.422;7.738;2022-09-12T07:43:15;14.55;;;8.02;;
54145;SDS011;40052;49.422;7.738;2022-09-12T07:45:40;11.45;;;7.63;;
54145;SDS011;40052;49.422;7.738;2022-09-12T07:48:07;9.65;;;6.78;;
54145;SDS011;40052;49.422;7.738;2022-09-12T07:50:35;10.25;;;6.90;;
54145;SDS011;40052;49.422;7.738;2022-09-12T07:53:05;7.78;;;6.28;;
54145;SDS011;40052;49.422;7.738;2022-09-12T07:55:31;8.80;;;6.53;;
54145;SDS011;40052;49.422;7.738;2022-09-12T07:57:59;7.68;;;5.88;;
54145;SDS011;40052;49.422;7.738;2022-09-12T08:00:27;8.07;;;5.93;;
54145;SDS011;40052;49.422;7.738;2022-09-12T08:02:59;6.45;;;5.55;;
54145;SDS011;40052;49.422;7.738;2022-09-12T08:05:31;10.57;;;5.82;;
54145;SDS011;40052;49.422;7.738;2022-09-12T08:07:56;9.73;;;6.00;;
54145;SDS011;40052;49.422;7.738;2022-09-12T08:10:26;8.70;;;5.72;;
54145;SDS011;40052;49.422;7.738;2022-09-12T08:12:51;7.75;;;5.13;;
54145;SDS011;40052;49.422;7.738;2022-09-12T08:15:17;10.23;;;6.00;;
54145;SDS011;40052;49.422;7.738;2022-09-12T08:17:44;8.85;;;6.65;;
54145;SDS011;40052;49.422;7.738;2022-09-12T08:20:09;7.68;;;5.95;;
54145;SDS011;40052;49.422;7.738;2022-09-12T08:22:37;7.05;;;5.50;;
54145;SDS011;40052;49.422;7.738;2022-09-12T08:25:07;11.63;;;6.15;;
54145;SDS011;40052;49.422;7.738;2022-09-12T08:27:32;8.48;;;5.45;;
54145;SDS011;40052;49.422;7.738;2022-09-12T08:29:58;7.07;;;6.30;;
54145;SDS011;40052;49.422;7.738;2022-09-12T08:32:26;6.95;;;5.07;;
54145;SDS011;40052;49.422;7.738;2022-09-12T08:34:52;7.35;;;5.72;;
54145;SDS011;40052;49.422;7.738;2022-09-12T08:37:17;9.13;;;5.93;;
54145;SDS011;40052;49.422;7.738;2022-09-12T08:39:43;7.32;;;5.63;;
54145;SDS011;40052;49.422;7.738;2022-09-12T08:42:09;9.55;;;6.03;;
54145;SDS011;40052;49.422;7.738;2022-09-12T08:47:34;9.52;;;5.18;;
54145;SDS011;40052;49.422;7.738;2022-09-12T08:50:09;6.45;;;5.10;;
54145;SDS011;40052;49.422;7.738;2022-09-12T08:52:42;7.07;;;4.95;;
54145;SDS011;40052;49.422;7.738;2022-09-12T08:58:11;6.82;;;5.32;;
54145;SDS011;40052;49.422;7.738;2022-09-12T09:08:48;6.07;;;4.60;;
54145;SDS011;40052;49.422;7.738;2022-09-12T09:16:59;5.28;;;4.15;;
54145;SDS011;40052;49.422;7.738;2022-09-12T09:19:43;7.75;;;4.72;;
54145;SDS011;40052;49.422;7.738;2022-09-12T09:25:05;5.18;;;4.18;;
54145;SDS011;40052;49.422;7.738;2022-09-12T09:27:41;4.45;;;4.05;;
54145;SDS011;40052;49.422;7.738;2022-09-12T09:30:15;8.83;;;4.47;;
54145;SDS011;40052;49.422;7.738;2022-09-12T09:32:43;4.43;;;3.65;;
54145;SDS011;40052;49.422;7.738;2022-09-12T09:35:15;4.68;;;3.70;;
54145;SDS011;40052;49.422;7.738;2022-09-12T09:45:24;3.83;;;3.53;;
54145;SDS011;40052;49.422;7.738;2022-09-12T09:47:56;5.97;;;4.50;;
54145;SDS011;40052;49.422;7.738;2022-09-12T09:50:27;6.22;;;4.22;;
54145;SDS011;40052;49.422;7.738;2022-09-12T09:52:53;4.45;;;3.70;;
54145;SDS011;40052;49.422;7.738;2022-09-12T09:55:29;3.67;;;3.35;;
54145;SDS011;40052;49.422;7.738;2022-09-12T09:58:04;3.53;;;3.22;;
54145;SDS011;40052;49.422;7.738;2022-09-12T10:00:34;4.70;;;3.42;;
54145;SDS011;40052;49.422;7.738;2022-09-12T10:08:09;3.42;;;3.08;;
54145;SDS011;40052;49.422;7.738;2022-09-12T10:10:56;3.45;;;3.15;;
54145;SDS011;40052;49.422;7.738;2022-09-12T10:13:29;3.40;;;2.97;;
54145;SDS011;40052;49.422;7.738;2022-09-12T10:16:01;5.10;;;3.20;;
54145;SDS011;40052;49.422;7.738;2022-09-12T10:18:40;3.42;;;3.13;;
54145;SDS011;40052;49.422;7.738;2022-09-12T10:24:01;3.50;;;2.55;;
54145;SDS011;40052;49.422;7.738;2022-09-12T10:26:54;2.75;;;2.55;;
54145;SDS011;40052;49.422;7.738;2022-09-12T10:29:28;4.28;;;2.67;;
54145;SDS011;40052;49.422;7.738;2022-09-12T10:32:02;3.72;;;2.60;;
54145;SDS011;40052;49.422;7.738;2022-09-12T10:34:36;3.05;;;2.75;;
54145;SDS011;40052;49.422;7.738;2022-09-12T10:37:07;2.75;;;2.55;;
54145;SDS011;40052;49.422;7.738;2022-09-12T10:39:52;3.72;;;2.78;;
54145;SDS011;40052;49.422;7.738;2022-09-12T10:43:15;3.72;;;2.30;;
54145;SDS011;40052;49.422;7.738;2022-09-12T10:45:17;2.78;;;2.58;;
54145;SDS011;40052;49.422;7.738;2022-09-12T10:47:53;3.00;;;2.50;;
54145;SDS011;40052;49.422;7.738;2022-09-12T10:52:51;3.05;;;2.60;;
54145;SDS011;40052;49.422;7.738;2022-09-12T10:55:17;2.60;;;2.40;;
54145;SDS011;40052;49.422;7.738;2022-09-12T11:00:46;1.80;;;1.50;;
54145;SDS011;40052;49.422;7.738;2022-09-12T11:03:29;1.67;;;1.58;;
54145;SDS011;40052;49.422;7.738;2022-09-12T11:06:17;2.53;;;2.20;;
54145;SDS011;40052;49.422;7.738;2022-09-12T11:11:33;2.25;;;2.00;;
54145;SDS011;40052;49.422;7.738;2022-09-12T11:14:14;3.53;;;2.60;;
54145;SDS011;40052;49.422;7.738;2022-09-12T11:19:36;1.80;;;1.60;;
54145;SDS011;40052;49.422;7.738;2022-09-12T11:25:21;4.00;;;1.70;;
54145;SDS011;40052;49.422;7.738;2022-09-12T11:28:39;2.92;;;1.70;;
54145;SDS011;40052;49.422;7.738;2022-09-12T11:33:44;1.98;;;1.35;;
54145;SDS011;40052;49.422;7.738;2022-09-12T11:36:34;2.30;;;1.60;;
54145;SDS011;40052;49.422;7.738;2022-09-12T11:41:37;1.48;;;1.38;;
54145;SDS011;40052;49.422;7.738;2022-09-12T11:44:22;1.60;;;1.38;;
54145;SDS011;40052;49.422;7.738;2022-09-12T11:46:52;1.60;;;1.40;;
54145;SDS011;40052;49.422;7.738;2022-09-12T11:57:21;1.88;;;1.30;;
54145;SDS011;40052;49.422;7.738;2022-09-12T12:00:04;2.08;;;1.23;;
54145;SDS011;40052;49.422;7.738;2022-09-12T12:07:58;1.42;;;1.23;;
54145;SDS011;40052;49.422;7.738;2022-09-12T12:13:27;1.92;;;1.27;;
54145;SDS011;40052;49.422;7.738;2022-09-12T12:16:00;1.92;;;1.30;;
54145;SDS011;40052;49.422;7.738;2022-09-12T12:18:31;1.55;;;1.25;;
54145;SDS011;40052;49.422;7.738;2022-09-12T12:29:09;1.20;;;1.10;;
54145;SDS011;40052;49.422;7.738;2022-09-12T12:34:27;1.45;;;1.33;;
54145;SDS011;40052;49.422;7.738;2022-09-12T12:45:02;1.60;;;1.30;;
54145;SDS011;40052;49.422;7.738;2022-09-12T12:47:48;1.40;;;1.23;;
54145;SDS011;40052;49.422;7.738;2022-09-12T12:52:50;1.35;;;1.10;;
54145;SDS011;40052;49.422;7.738;2022-09-12T12:55:26;2.22;;;1.25;;
54145;SDS011;40052;49.422;7.738;2022-09-12T12:57:59;1.60;;;1.33;;
54145;SDS011;40052;49.422;7.738;2022-09-12T13:00:27;1.45;;;1.30;;
54145;SDS011;40052;49.422;7.738;2022-09-12T13:05:43;2.45;;;1.42;;
54145;SDS011;40052;49.422;7.738;2022-09-12T13:10:49;1.65;;;1.52;;
54145;SDS011;40052;49.422;7.738;2022-09-12T13:13:22;1.67;;;1.38;;
54145;SDS011;40052;49.422;7.738;2022-09-12T13:15:53;1.98;;;1.30;;
54145;SDS011;40052;49.422;7.738;2022-09-12T13:18:20;1.60;;;1.40;;
54145;SDS011;40052;49.422;7.738;2022-09-12T13:21:23;2.15;;;1.55;;
54145;SDS011;40052;49.422;7.738;2022-09-12T13:23:43;1.50;;;1.30;;
54145;SDS011;40052;49.422;7.738;2022-09-12T13:26:13;1.60;;;1.50;;
54145;SDS011;40052;49.422;7.738;2022-09-12T13:31:21;1.33;;;1.17;;
54145;SDS011;40052;49.422;7.738;2022-09-12T13:33:51;1.50;;;1.40;;
54145;SDS011;40052;49.422;7.738;2022-09-12T13:41:56;1.95;;;1.30;;
54145;SDS011;40052;49.422;7.738;2022-09-12T13:44:49;2.17;;;1.60;;
54145;SDS011;40052;49.422;7.738;2022-09-12T13:47:22;3.17;;;1.80;;
54145;SDS011;40052;49.422;7.738;2022-09-12T13:49:54;1.63;;;1.48;;
54145;SDS011;40052;49.422;7.738;2022-09-12T13:52:22;2.85;;;1.60;;
54145;SDS011;40052;49.422;7.738;2022-09-12T13:54:55;1.50;;;1.40;;
54145;SDS011;40052;49.422;7.738;2022-09-12T13:57:40;1.70;;;1.60;;
54145;SDS011;40052;49.422;7.738;2022-09-12T14:00:14;1.80;;;1.60;;
54145;SDS011;40052;49.422;7.738;2022-09-12T14:02:43;1.92;;;1.58;;
54145;SDS011;40052;49.422;7.738;2022-09-12T14:05:18;1.67;;;1.58;;
54145;SDS011;40052;49.422;7.738;2022-09-12T14:07:57;1.98;;;1.52;;
54145;SDS011;40052;49.422;7.738;2022-09-12T14:10:30;3.35;;;2.00;;
54145;SDS011;40052;49.422;7.738;2022-09-12T14:13:02;2.58;;;1.90;;
54145;SDS011;40052;49.422;7.738;2022-09-12T14:15:37;1.73;;;1.50;;
54145;SDS011;40052;49.422;7.738;2022-09-12T14:18:18;2.00;;;1.52;;
54145;SDS011;40052;49.422;7.738;2022-09-12T14:21:04;2.03;;;1.70;;
54145;SDS011;40052;49.422;7.738;2022-09-12T14:23:34;1.95;;;1.80;;
54145;SDS011;40052;49.422;7.738;2022-09-12T14:26:07;2.00;;;1.80;;
54145;SDS011;40052;49.422;7.738;2022-09-12T14:28:37;2.50;;;1.60;;
54145;SDS011;40052;49.422;7.738;2022-09-12T14:33:56;2.00;;;1.80;;
54145;SDS011;40052;49.422;7.738;2022-09-12T14:36:40;3.05;;;2.08;;
54145;SDS011;40052;49.422;7.738;2022-09-12T14:39:24;1.58;;;1.48;;
54145;SDS011;40052;49.422;7.738;2022-09-12T14:42:10;2.45;;;1.73;;
54145;SDS011;40052;49.422;7.738;2022-09-12T14:44:39;3.03;;;1.70;;
54145;SDS011;40052;49.422;7.738;2022-09-12T14:47:13;1.88;;;1.52;;
54145;SDS011;40052;49.422;7.738;2022-09-12T14:49:45;1.60;;;1.48;;
54145;SDS011;40052;49.422;7.738;2022-09-12T14:52:28;1.88;;;1.63;;
54145;SDS011;40052;49.422;7.738;2022-09-12T14:55:02;2.55;;;1.90;;
54145;SDS011;40052;49.422;7.738;2022-09-12T15:00:13;2.17;;;1.75;;
54145;SDS011;40052;49.422;7.738;2022-09-12T15:02:44;2.00;;;1.80;;
54145;SDS011;40052;49.422;7.738;2022-09-12T15:10:20;2.05;;;1.88;;
54145;SDS011;40052;49.422;7.738;2022-09-12T15:15:36;1.70;;;1.58;;
54145;SDS011;40052;49.422;7.738;2022-09-12T15:18:02;2.00;;;1.80;;
54145;SDS011;40052;49.422;7.738;2022-09-12T15:20:29;1.60;;;1.50;;
54145;SDS011;40052;49.422;7.738;2022-09-12T15:22:57;4.15;;;1.70;;
54145;SDS011;40052;49.422;7.738;2022-09-12T15:25:25;1.88;;;1.60;;
54145;SDS011;40052;49.422;7.738;2022-09-12T15:27:51;2.08;;;1.85;;
54145;SDS011;40052;49.422;7.738;2022-09-12T15:30:17;3.70;;;1.70;;
54145;SDS011;40052;49.422;7.738;2022-09-12T15:32:48;1.52;;;1.42;;
54145;SDS011;40052;49.422;7.738;2022-09-12T15:35:17;2.05;;;1.48;;
54145;SDS011;40052;49.422;7.738;2022-09-12T15:37:46;2.03;;;1.65;;
54145;SDS011;40052;49.422;7.738;2022-09-12T15:40:12;4.30;;;1.77;;
54145;SDS011;40052;49.422;7.738;2022-09-12T15:42:39;1.50;;;1.40;;
54145;SDS011;40052;49.422;7.738;2022-09-12T15:45:11;2.38;;;1.30;;
54145;SDS011;40052;49.422;7.738;2022-09-12T15:47:42;1.52;;;1.42;;
54145;SDS011;40052;49.422;7.738;2022-09-12T15:50:07;1.77;;;1.63;;
54145;SDS011;40052;49.422;7.738;2022-09-12T15:52:34;1.58;;;1.48;;
54145;SDS011;40052;49.422;7.738;2022-09-12T15:55:00;2.17;;;1.40;;
54145;SDS011;40052;49.422;7.738;2022-09-12T15:57:28;1.63;;;1.45;;
54145;SDS011;40052;49.422;7.738;2022-09-12T15:59:53;1.40;;;1.30;;
54145;SDS011;40052;49.422;7.738;2022-09-12T16:02:18;1.63;;;1.45;;
54145;SDS011;40052;49.422;7.738;2022-09-12T16:04:44;2.50;;;1.60;;
54145;SDS011;40052;49.422;7.738;2022-09-12T16:07:12;2.45;;;1.40;;
54145;SDS011;40052;49.422;7.738;2022-09-12T16:09:37;1.98;;;1.60;;
54145;SDS011;40052;49.422;7.738;2022-09-12T16:12:03;2.15;;;1.40;;
54145;SDS011;40052;49.422;7.738;2022-09-12T16:14:30;2.58;;;1.48;;
54145;SDS011;40052;49.422;7.738;2022-09-12T16:16:56;1.55;;;1.33;;
54145;SDS011;40052;49.422;7.738;2022-09-12T16:19:22;1.50;;;1.40;;
54145;SDS011;40052;49.422;7.738;2022-09-12T16:21:47;1.60;;;1.48;;
54145;SDS011;40052;49.422;7.738;2022-09-12T16:24:16;1.50;;;1.40;;
54145;SDS011;40052;49.422;7.738;2022-09-12T16:26:44;2.30;;;1.50;;
54145;SDS011;40052;49.422;7.738;2022-09-12T16:29:14;2.75;;;1.10;;
54145;SDS011;40052;49.422;7.738;2022-09-12T16:31:39;1.65;;;1.40;;
54145;SDS011;40052;49.422;7.738;2022-09-12T16:34:05;1.63;;;1.20;;
54145;SDS011;40052;49.422;7.738;2022-09-12T16:36:31;1.50;;;1.30;;
54145;SDS011;40052;49.422;7.738;2022-09-12T16:38:58;3.03;;;1.48;;
54145;SDS011;40052;49.422;7.738;2022-09-12T16:41:31;1.42;;;1.30;;
54145;SDS011;40052;49.422;7.738;2022-09-12T16:43:59;2.63;;;1.58;;
54145;SDS011;40052;49.422;7.738;2022-09-12T16:46:25;1.80;;;1.50;;
54145;SDS011;40052;49.422;7.738;2022-09-12T16:48:54;1.52;;;1.40;;
54145;SDS011;40052;49.422;7.738;2022-09-12T16:51:29;4.97;;;1.63;;
54145;SDS011;40052;49.422;7.738;2022-09-12T16:53:58;2.30;;;1.38;;
54145;SDS011;40052;49.422;7.738;2022-09-12T16:56:24;1.77;;;1.45;;
54145;SDS011;40052;49.422;7.738;2022-09-12T16:58:50;2.25;;;1.48;;
54145;SDS011;40052;49.422;7.738;2022-09-12T17:01:24;3.30;;;1.45;;
54145;SDS011;40052;49.422;7.738;2022-09-12T17:03:54;1.60;;;1.50;;
54145;SDS011;40052;49.422;7.738;2022-09-12T17:06:21;2.92;;;1.60;;
54145;SDS011;40052;49.422;7.738;2022-09-12T17:08:48;1.90;;;1.63;;
54145;SDS011;40052;49.422;7.738;2022-09-12T17:11:19;3.67;;;1.30;;
54145;SDS011;40052;49.422;7.738;2022-09-12T17:13:54;1.38;;;1.27;;
54145;SDS011;40052;49.422;7.738;2022-09-12T17:16:23;1.30;;;1.10;;
54145;SDS011;40052;49.422;7.738;2022-09-12T17:18:49;1.40;;;1.30;;
54145;SDS011;40052;49.422;7.738;2022-09-12T17:21:23;1.63;;;1.45;;
54145;SDS011;40052;49.422;7.738;2022-09-12T17:23:52;1.50;;;1.00;;
54145;SDS011;40052;49.422;7.738;2022-09-12T17:26:20;3.15;;;1.35;;
54145;SDS011;40052;49.422;7.738;2022-09-12T17:28:47;1.63;;;1.40;;
54145;SDS011;40052;49.422;7.738;2022-09-12T17:31:13;1.63;;;1.48;;
54145;SDS011;40052;49.422;7.738;2022-09-12T17:33:43;2.15;;;1.75;;
54145;SDS011;40052;49.422;7.738;2022-09-12T17:36:10;1.98;;;1.75;;
54145;SDS011;40052;49.422;7.738;2022-09-12T17:38:43;3.60;;;1.42;;
54145;SDS011;40052;49.422;7.738;2022-09-12T17:41:11;2.47;;;1.55;;
54145;SDS011;40052;49.422;7.738;2022-09-12T17:43:40;3.53;;;1.63;;
54145;SDS011;40052;49.422;7.738;2022-09-12T17:46:06;1.67;;;1.50;;
54145;SDS011;40052;49.422;7.738;2022-09-12T17:48:34;3.35;;;1.90;;
54145;SDS011;40052;49.422;7.738;2022-09-12T17:51:10;2.72;;;1.88;;
54145;SDS011;40052;49.422;7.738;2022-09-12T17:53:37;2.33;;;1.63;;